メインページ
METAR-TAF:

METAR-TAF

空港 :

ラパス, メキシコ

緯度: 24-04N, 経度: 110-22W, 海抜: 21m

現時点の気象観測

当レポートは32分前の04:45(UTC)に作成
の風 12kt
気温 20°C
湿度 64%
気圧 1013 hPa
視程: 16.1km
晴天

METAR: MMLP 200445Z 19012KT 10SM SKC 20/13 A2991

時間: 23:17 (05:17 UTC)

予報

当レポートは13時間7分前の16:10(UTC)に作成
予報は19日の 18時(UTC)から 20日の 18時(UTC)まで有効
南/南西の風 10kt
視程: 10km
晴天
19日の 20時(UTC)から 19日の 21時(UTC)まで徐々に
の風 12kt
高度3000ftの雲は散在している
20日の 0200時(UTC)から
南/南西の風 8kt
視程: 10km
晴天
20日の 05時(UTC)から 20日の 06時(UTC)まで徐々に
の風 kt
20日の 1200時(UTC)から
の風 10kt
視程: 10km
晴天

TAF: MMLP 191610Z 1918/2018 21010KT P6SM SKC BECMG 1920/1921 36012KT SCT030 FM200200 21008KT P6SM SKC BECMG 2005/2006 00000KT FM201200 18010KT P6SM SKC

4,000以上の空港の気象観測と天気予報(METAR報とTAF報)

利用可能な観測所は地図上に黄色い丸と赤い丸で示す。

丸の上にカーソルを重ねると観測所名を参照できる。

次にクリックすると気象観測と天気予報を参照できる。

マップの切り替え:黒色「×」印の緑ボタンをクリックして拡大、「-」印の緑ボタンをクリックして縮小、緑色の三角印をクリックして隣りの地図に切り替え


METAR-TAF: